sensor_id;sensor_type;location;lat;lon;timestamp;temperature;humidity
7232;DHT22;3657;49.630;11.018;2022-10-16T00:00:30;15.90;99.90
7232;DHT22;3657;49.630;11.018;2022-10-16T00:02:57;15.80;99.90
7232;DHT22;3657;49.630;11.018;2022-10-16T00:05:24;15.80;99.90
7232;DHT22;3657;49.630;11.018;2022-10-16T00:07:52;15.70;99.90
7232;DHT22;3657;49.630;11.018;2022-10-16T00:10:19;15.70;99.90
7232;DHT22;3657;49.630;11.018;2022-10-16T00:12:46;15.70;99.90
7232;DHT22;3657;49.630;11.018;2022-10-16T00:15:13;15.70;99.90
7232;DHT22;3657;49.630;11.018;2022-10-16T00:17:39;15.80;99.90
7232;DHT22;3657;49.630;11.018;2022-10-16T00:20:07;15.70;99.90
7232;DHT22;3657;49.630;11.018;2022-10-16T00:22:34;15.80;99.90
7232;DHT22;3657;49.630;11.018;2022-10-16T00:25:02;15.80;99.90
7232;DHT22;3657;49.630;11.018;2022-10-16T00:27:29;15.80;99.90
7232;DHT22;3657;49.630;11.018;2022-10-16T00:29:56;15.70;99.90
7232;DHT22;3657;49.630;11.018;2022-10-16T00:32:22;15.70;99.90
7232;DHT22;3657;49.630;11.018;2022-10-16T00:34:49;15.70;99.90
7232;DHT22;3657;49.630;11.018;2022-10-16T00:37:16;15.70;99.90
7232;DHT22;3657;49.630;11.018;2022-10-16T00:39:42;15.70;99.90
7232;DHT22;3657;49.630;11.018;2022-10-16T00:42:15;15.70;99.90
7232;DHT22;3657;49.630;11.018;2022-10-16T00:44:46;15.70;99.90
7232;DHT22;3657;49.630;11.018;2022-10-16T00:47:19;15.70;99.90
7232;DHT22;3657;49.630;11.018;2022-10-16T00:49:46;15.70;99.90
7232;DHT22;3657;49.630;11.018;2022-10-16T00:52:14;15.80;99.90
7232;DHT22;3657;49.630;11.018;2022-10-16T00:54:41;15.70;99.90
7232;DHT22;3657;49.630;11.018;2022-10-16T00:57:09;15.70;99.90
7232;DHT22;3657;49.630;11.018;2022-10-16T00:59:39;15.70;99.90
7232;DHT22;3657;49.630;11.018;2022-10-16T01:02:08;15.70;99.90
7232;DHT22;3657;49.630;11.018;2022-10-16T01:04:37;15.70;99.90
7232;DHT22;3657;49.630;11.018;2022-10-16T01:07:11;15.60;99.90
7232;DHT22;3657;49.630;11.018;2022-10-16T01:09:47;15.70;99.90
7232;DHT22;3657;49.630;11.018;2022-10-16T01:12:25;15.70;99.90
7232;DHT22;3657;49.630;11.018;2022-10-16T01:15:00;15.70;99.90
7232;DHT22;3657;49.630;11.018;2022-10-16T01:17:31;15.70;99.90
7232;DHT22;3657;49.630;11.018;2022-10-16T01:20:08;15.70;99.90
7232;DHT22;3657;49.630;11.018;2022-10-16T01:22:42;15.70;99.90
7232;DHT22;3657;49.630;11.018;2022-10-16T01:25:18;15.70;99.90
7232;DHT22;3657;49.630;11.018;2022-10-16T01:27:48;15.70;99.90
7232;DHT22;3657;49.630;11.018;2022-10-16T01:30:20;15.70;99.90
7232;DHT22;3657;49.630;11.018;2022-10-16T01:32:50;15.60;99.90
7232;DHT22;3657;49.630;11.018;2022-10-16T01:35:23;15.60;99.90
7232;DHT22;3657;49.630;11.018;2022-10-16T01:37:54;15.60;99.90
7232;DHT22;3657;49.630;11.018;2022-10-16T01:40:25;15.60;99.90
7232;DHT22;3657;49.630;11.018;2022-10-16T01:42:56;15.60;99.90
7232;DHT22;3657;49.630;11.018;2022-10-16T01:45:25;15.60;99.90
7232;DHT22;3657;49.630;11.018;2022-10-16T01:47:55;15.60;99.90
7232;DHT22;3657;49.630;11.018;2022-10-16T01:50:22;15.60;99.90
7232;DHT22;3657;49.630;11.018;2022-10-16T01:52:52;15.60;99.90
7232;DHT22;3657;49.630;11.018;2022-10-16T01:55:22;15.60;99.90
7232;DHT22;3657;49.630;11.018;2022-10-16T01:57:51;15.60;99.90
7232;DHT22;3657;49.630;11.018;2022-10-16T02:00:21;15.60;99.90
7232;DHT22;3657;49.630;11.018;2022-10-16T02:02:51;15.60;99.90
7232;DHT22;3657;49.630;11.018;2022-10-16T02:05:24;15.60;99.90
7232;DHT22;3657;49.630;11.018;2022-10-16T02:07:53;15.60;99.90
7232;DHT22;3657;49.630;11.018;2022-10-16T02:10:20;15.60;99.90
7232;DHT22;3657;49.630;11.018;2022-10-16T02:12:50;15.60;99.90
7232;DHT22;3657;49.630;11.018;2022-10-16T02:15:21;15.60;99.90
7232;DHT22;3657;49.630;11.018;2022-10-16T02:17:48;15.60;99.90
7232;DHT22;3657;49.630;11.018;2022-10-16T02:20:14;15.60;99.90
7232;DHT22;3657;49.630;11.018;2022-10-16T02:22:45;15.60;99.90
7232;DHT22;3657;49.630;11.018;2022-10-16T02:25:17;15.60;99.90
7232;DHT22;3657;49.630;11.018;2022-10-16T02:27:53;15.60;99.90
7232;DHT22;3657;49.630;11.018;2022-10-16T02:30:27;15.60;99.90
7232;DHT22;3657;49.630;11.018;2022-10-16T02:32:55;15.60;99.90
7232;DHT22;3657;49.630;11.018;2022-10-16T02:35:24;15.60;99.90
7232;DHT22;3657;49.630;11.018;2022-10-16T02:37:52;15.60;99.90
7232;DHT22;3657;49.630;11.018;2022-10-16T02:40:20;15.50;99.90
7232;DHT22;3657;49.630;11.018;2022-10-16T02:42:50;15.50;99.90
7232;DHT22;3657;49.630;11.018;2022-10-16T02:45:17;15.50;99.90
7232;DHT22;3657;49.630;11.018;2022-10-16T02:47:45;15.50;99.90
7232;DHT22;3657;49.630;11.018;2022-10-16T02:50:12;15.50;99.90
7232;DHT22;3657;49.630;11.018;2022-10-16T02:52:38;15.50;99.90
7232;DHT22;3657;49.630;11.018;2022-10-16T02:55:06;15.50;99.90
7232;DHT22;3657;49.630;11.018;2022-10-16T02:57:33;15.50;99.90
7232;DHT22;3657;49.630;11.018;2022-10-16T03:00:00;15.50;99.90
7232;DHT22;3657;49.630;11.018;2022-10-16T03:02:27;15.50;99.90
7232;DHT22;3657;49.630;11.018;2022-10-16T03:04:55;15.50;99.90
7232;DHT22;3657;49.630;11.018;2022-10-16T03:07:22;15.50;99.90
7232;DHT22;3657;49.630;11.018;2022-10-16T03:09:49;15.50;99.90
7232;DHT22;3657;49.630;11.018;2022-10-16T03:12:15;15.50;99.90
7232;DHT22;3657;49.630;11.018;2022-10-16T03:14:42;15.50;99.90
7232;DHT22;3657;49.630;11.018;2022-10-16T03:17:09;15.50;99.90
7232;DHT22;3657;49.630;11.018;2022-10-16T03:19:35;15.50;99.90
7232;DHT22;3657;49.630;11.018;2022-10-16T03:22:04;15.50;99.90
7232;DHT22;3657;49.630;11.018;2022-10-16T03:24:31;15.60;99.90
7232;DHT22;3657;49.630;11.018;2022-10-16T03:26:57;15.50;99.90
7232;DHT22;3657;49.630;11.018;2022-10-16T03:29:24;15.50;99.90
7232;DHT22;3657;49.630;11.018;2022-10-16T03:31:51;15.50;99.90
7232;DHT22;3657;49.630;11.018;2022-10-16T03:34:17;15.50;99.90
7232;DHT22;3657;49.630;11.018;2022-10-16T03:36:44;15.50;99.90
7232;DHT22;3657;49.630;11.018;2022-10-16T03:39:12;15.50;99.90
7232;DHT22;3657;49.630;11.018;2022-10-16T03:41:39;15.60;99.90
7232;DHT22;3657;49.630;11.018;2022-10-16T03:44:06;15.50;99.90
7232;DHT22;3657;49.630;11.018;2022-10-16T03:46:33;15.50;99.90
7232;DHT22;3657;49.630;11.018;2022-10-16T03:48:59;15.50;99.90
7232;DHT22;3657;49.630;11.018;2022-10-16T03:51:26;15.50;99.90
7232;DHT22;3657;49.630;11.018;2022-10-16T03:53:53;15.50;99.90
7232;DHT22;3657;49.630;11.018;2022-10-16T03:56:21;15.50;99.90
7232;DHT22;3657;49.630;11.018;2022-10-16T03:58:48;15.50;99.90
7232;DHT22;3657;49.630;11.018;2022-10-16T04:01:15;15.50;99.90
7232;DHT22;3657;49.630;11.018;2022-10-16T04:03:42;15.50;99.90
7232;DHT22;3657;49.630;11.018;2022-10-16T04:06:09;15.50;99.90
7232;DHT22;3657;49.630;11.018;2022-10-16T04:08:35;15.50;99.90
7232;DHT22;3657;49.630;11.018;2022-10-16T04:11:04;15.50;99.90
7232;DHT22;3657;49.630;11.018;2022-10-16T04:13:32;15.40;99.90
7232;DHT22;3657;49.630;11.018;2022-10-16T04:15:59;15.50;99.90
7232;DHT22;3657;49.630;11.018;2022-10-16T04:18:26;15.50;99.90
7232;DHT22;3657;49.630;11.018;2022-10-16T04:20:53;15.50;99.90
7232;DHT22;3657;49.630;11.018;2022-10-16T04:23:20;15.50;99.90
7232;DHT22;3657;49.630;11.018;2022-10-16T04:25:48;15.50;99.90
7232;DHT22;3657;49.630;11.018;2022-10-16T04:28:15;15.50;99.90
7232;DHT22;3657;49.630;11.018;2022-10-16T04:30:43;15.50;99.90
7232;DHT22;3657;49.630;11.018;2022-10-16T04:33:09;15.50;99.90
7232;DHT22;3657;49.630;11.018;2022-10-16T04:35:36;15.50;99.90
7232;DHT22;3657;49.630;11.018;2022-10-16T04:38:03;15.50;99.90
7232;DHT22;3657;49.630;11.018;2022-10-16T04:40:30;15.50;99.90
7232;DHT22;3657;49.630;11.018;2022-10-16T04:42:58;15.40;99.90
7232;DHT22;3657;49.630;11.018;2022-10-16T04:45:25;15.40;99.90
7232;DHT22;3657;49.630;11.018;2022-10-16T04:47:56;15.50;99.90
7232;DHT22;3657;49.630;11.018;2022-10-16T04:50:23;15.50;99.90
7232;DHT22;3657;49.630;11.018;2022-10-16T04:52:50;15.50;99.90
7232;DHT22;3657;49.630;11.018;2022-10-16T04:55:17;15.40;99.90
7232;DHT22;3657;49.630;11.018;2022-10-16T04:57:44;15.50;99.90
7232;DHT22;3657;49.630;11.018;2022-10-16T05:00:11;15.50;99.90
7232;DHT22;3657;49.630;11.018;2022-10-16T05:02:38;15.50;99.90
7232;DHT22;3657;49.630;11.018;2022-10-16T05:05:06;15.40;99.90
7232;DHT22;3657;49.630;11.018;2022-10-16T05:07:33;15.40;99.90
7232;DHT22;3657;49.630;11.018;2022-10-16T05:10:00;15.40;99.90
7232;DHT22;3657;49.630;11.018;2022-10-16T05:12:27;15.40;99.90
7232;DHT22;3657;49.630;11.018;2022-10-16T05:14:53;15.40;99.90
7232;DHT22;3657;49.630;11.018;2022-10-16T05:17:23;15.50;99.90
7232;DHT22;3657;49.630;11.018;2022-10-16T05:19:50;15.40;99.90
7232;DHT22;3657;49.630;11.018;2022-10-16T05:22:18;15.40;99.90
7232;DHT22;3657;49.630;11.018;2022-10-16T05:24:45;15.50;99.90
7232;DHT22;3657;49.630;11.018;2022-10-16T05:27:12;15.40;99.90
7232;DHT22;3657;49.630;11.018;2022-10-16T05:29:44;15.40;99.90
7232;DHT22;3657;49.630;11.018;2022-10-16T05:32:12;15.40;99.90
7232;DHT22;3657;49.630;11.018;2022-10-16T05:34:38;15.40;99.90
7232;DHT22;3657;49.630;11.018;2022-10-16T05:37:05;15.40;99.90
7232;DHT22;3657;49.630;11.018;2022-10-16T05:39:33;15.40;99.90
7232;DHT22;3657;49.630;11.018;2022-10-16T05:42:00;15.30;99.90
7232;DHT22;3657;49.630;11.018;2022-10-16T05:44:27;15.40;99.90
7232;DHT22;3657;49.630;11.018;2022-10-16T05:46:53;15.40;99.90
7232;DHT22;3657;49.630;11.018;2022-10-16T05:49:20;15.40;99.90
7232;DHT22;3657;49.630;11.018;2022-10-16T05:51:47;15.40;99.90
7232;DHT22;3657;49.630;11.018;2022-10-16T05:54:14;15.40;99.90
7232;DHT22;3657;49.630;11.018;2022-10-16T05:56:42;15.40;99.90
7232;DHT22;3657;49.630;11.018;2022-10-16T05:59:09;15.50;99.90
7232;DHT22;3657;49.630;11.018;2022-10-16T06:01:36;15.40;99.90
7232;DHT22;3657;49.630;11.018;2022-10-16T06:04:02;15.40;99.90
7232;DHT22;3657;49.630;11.018;2022-10-16T06:06:29;15.50;99.90
7232;DHT22;3657;49.630;11.018;2022-10-16T06:08:57;15.50;99.90
7232;DHT22;3657;49.630;11.018;2022-10-16T06:11:26;15.50;99.90
7232;DHT22;3657;49.630;11.018;2022-10-16T06:13:56;15.50;99.90
7232;DHT22;3657;49.630;11.018;2022-10-16T06:16:23;15.50;99.90
7232;DHT22;3657;49.630;11.018;2022-10-16T06:18:51;15.50;99.90
7232;DHT22;3657;49.630;11.018;2022-10-16T06:21:19;15.40;99.90
7232;DHT22;3657;49.630;11.018;2022-10-16T06:23:47;15.40;99.90
7232;DHT22;3657;49.630;11.018;2022-10-16T06:26:16;15.40;99.90
7232;DHT22;3657;49.630;11.018;2022-10-16T06:28:43;15.50;99.90
7232;DHT22;3657;49.630;11.018;2022-10-16T06:31:12;15.40;99.90
7232;DHT22;3657;49.630;11.018;2022-10-16T06:33:39;15.40;99.90
7232;DHT22;3657;49.630;11.018;2022-10-16T06:36:08;15.50;99.90
7232;DHT22;3657;49.630;11.018;2022-10-16T06:38:35;15.40;99.90
7232;DHT22;3657;49.630;11.018;2022-10-16T06:41:02;15.40;99.90
7232;DHT22;3657;49.630;11.018;2022-10-16T06:43:30;15.50;99.90
7232;DHT22;3657;49.630;11.018;2022-10-16T06:45:59;15.50;99.90
7232;DHT22;3657;49.630;11.018;2022-10-16T06:48:28;15.50;99.90
7232;DHT22;3657;49.630;11.018;2022-10-16T06:50:56;15.50;99.90
7232;DHT22;3657;49.630;11.018;2022-10-16T06:53:23;15.50;99.90
7232;DHT22;3657;49.630;11.018;2022-10-16T06:55:50;15.40;99.90
7232;DHT22;3657;49.630;11.018;2022-10-16T06:58:17;15.50;99.90
7232;DHT22;3657;49.630;11.018;2022-10-16T07:00:44;15.50;99.90
7232;DHT22;3657;49.630;11.018;2022-10-16T07:03:11;15.50;99.90
7232;DHT22;3657;49.630;11.018;2022-10-16T07:05:40;15.50;99.90
7232;DHT22;3657;49.630;11.018;2022-10-16T07:08:07;15.50;99.90
7232;DHT22;3657;49.630;11.018;2022-10-16T07:10:34;15.50;99.90
7232;DHT22;3657;49.630;11.018;2022-10-16T07:13:01;15.50;99.90
7232;DHT22;3657;49.630;11.018;2022-10-16T07:15:28;15.50;99.90
7232;DHT22;3657;49.630;11.018;2022-10-16T07:17:54;15.50;99.90
7232;DHT22;3657;49.630;11.018;2022-10-16T07:20:21;15.50;99.90
7232;DHT22;3657;49.630;11.018;2022-10-16T07:22:49;15.50;99.90
7232;DHT22;3657;49.630;11.018;2022-10-16T07:25:16;15.50;99.90
7232;DHT22;3657;49.630;11.018;2022-10-16T07:27:43;15.50;99.90
7232;DHT22;3657;49.630;11.018;2022-10-16T07:30:10;15.50;99.90
7232;DHT22;3657;49.630;11.018;2022-10-16T07:32:37;15.50;99.90
7232;DHT22;3657;49.630;11.018;2022-10-16T07:35:04;15.60;99.90
7232;DHT22;3657;49.630;11.018;2022-10-16T07:37:31;15.60;99.90
7232;DHT22;3657;49.630;11.018;2022-10-16T07:39:59;15.50;99.90
7232;DHT22;3657;49.630;11.018;2022-10-16T07:42:27;15.50;99.90
7232;DHT22;3657;49.630;11.018;2022-10-16T07:44:53;15.60;99.90
7232;DHT22;3657;49.630;11.018;2022-10-16T07:47:20;15.60;99.90
7232;DHT22;3657;49.630;11.018;2022-10-16T07:49:47;15.60;99.90
7232;DHT22;3657;49.630;11.018;2022-10-16T07:52:14;15.70;99.90
7232;DHT22;3657;49.630;11.018;2022-10-16T07:54:40;15.70;99.90
7232;DHT22;3657;49.630;11.018;2022-10-16T07:57:08;15.80;99.90
7232;DHT22;3657;49.630;11.018;2022-10-16T07:59:35;15.90;99.90
7232;DHT22;3657;49.630;11.018;2022-10-16T08:02:02;15.90;99.90
7232;DHT22;3657;49.630;11.018;2022-10-16T08:04:28;16.00;99.90
7232;DHT22;3657;49.630;11.018;2022-10-16T08:06:55;16.10;99.90
7232;DHT22;3657;49.630;11.018;2022-10-16T08:09:22;16.10;99.90
7232;DHT22;3657;49.630;11.018;2022-10-16T08:11:48;16.20;99.90
7232;DHT22;3657;49.630;11.018;2022-10-16T08:14:16;16.20;99.90
7232;DHT22;3657;49.630;11.018;2022-10-16T08:16:43;16.10;99.90
7232;DHT22;3657;49.630;11.018;2022-10-16T08:19:10;16.10;99.90
7232;DHT22;3657;49.630;11.018;2022-10-16T08:21:37;16.00;99.90
7232;DHT22;3657;49.630;11.018;2022-10-16T08:24:03;16.00;99.90
7232;DHT22;3657;49.630;11.018;2022-10-16T08:26:30;16.00;99.90
7232;DHT22;3657;49.630;11.018;2022-10-16T08:28:57;16.00;99.90
7232;DHT22;3657;49.630;11.018;2022-10-16T08:31:25;15.90;99.90
7232;DHT22;3657;49.630;11.018;2022-10-16T08:33:52;16.00;99.90
7232;DHT22;3657;49.630;11.018;2022-10-16T08:36:19;16.00;99.90
7232;DHT22;3657;49.630;11.018;2022-10-16T08:38:48;16.00;99.90
7232;DHT22;3657;49.630;11.018;2022-10-16T08:41:27;16.10;99.90
7232;DHT22;3657;49.630;11.018;2022-10-16T08:44:17;16.30;99.90
7232;DHT22;3657;49.630;11.018;2022-10-16T08:46:51;16.50;99.90
7232;DHT22;3657;49.630;11.018;2022-10-16T08:49:20;16.90;99.90
7232;DHT22;3657;49.630;11.018;2022-10-16T08:51:46;17.20;99.90
7232;DHT22;3657;49.630;11.018;2022-10-16T08:54:23;17.20;99.90
7232;DHT22;3657;49.630;11.018;2022-10-16T08:56:54;17.10;99.90
7232;DHT22;3657;49.630;11.018;2022-10-16T08:59:21;17.10;99.90
7232;DHT22;3657;49.630;11.018;2022-10-16T09:01:52;17.00;99.90
7232;DHT22;3657;49.630;11.018;2022-10-16T09:04:51;17.10;99.90
7232;DHT22;3657;49.630;11.018;2022-10-16T09:07:24;17.30;99.90
7232;DHT22;3657;49.630;11.018;2022-10-16T09:10:08;17.70;99.90
7232;DHT22;3657;49.630;11.018;2022-10-16T09:12:42;17.90;99.90
7232;DHT22;3657;49.630;11.018;2022-10-16T09:15:20;18.10;99.90
7232;DHT22;3657;49.630;11.018;2022-10-16T09:17:56;18.20;99.90
7232;DHT22;3657;49.630;11.018;2022-10-16T09:20:33;18.10;99.90
7232;DHT22;3657;49.630;11.018;2022-10-16T09:23:12;18.00;99.90
7232;DHT22;3657;49.630;11.018;2022-10-16T09:25:44;17.90;99.90
7232;DHT22;3657;49.630;11.018;2022-10-16T09:28:11;17.90;99.90
7232;DHT22;3657;49.630;11.018;2022-10-16T09:30:38;17.90;99.90
7232;DHT22;3657;49.630;11.018;2022-10-16T09:33:08;17.90;99.90
7232;DHT22;3657;49.630;11.018;2022-10-16T09:35:37;17.80;99.90
7232;DHT22;3657;49.630;11.018;2022-10-16T09:38:05;17.80;99.90
7232;DHT22;3657;49.630;11.018;2022-10-16T09:40:34;17.80;99.90
7232;DHT22;3657;49.630;11.018;2022-10-16T09:43:06;17.70;99.90
7232;DHT22;3657;49.630;11.018;2022-10-16T09:45:39;17.70;99.90
7232;DHT22;3657;49.630;11.018;2022-10-16T09:48:12;17.60;99.90
7232;DHT22;3657;49.630;11.018;2022-10-16T09:50:39;17.60;99.90
7232;DHT22;3657;49.630;11.018;2022-10-16T09:53:14;17.60;99.90
7232;DHT22;3657;49.630;11.018;2022-10-16T09:55:51;17.60;99.90
7232;DHT22;3657;49.630;11.018;2022-10-16T09:58:20;17.60;99.90
7232;DHT22;3657;49.630;11.018;2022-10-16T10:00:50;17.60;99.90
7232;DHT22;3657;49.630;11.018;2022-10-16T10:03:33;17.60;99.90
7232;DHT22;3657;49.630;11.018;2022-10-16T10:06:06;17.60;99.90
7232;DHT22;3657;49.630;11.018;2022-10-16T10:08:33;17.70;99.90
7232;DHT22;3657;49.630;11.018;2022-10-16T10:11:00;17.70;99.90
7232;DHT22;3657;49.630;11.018;2022-10-16T10:13:27;17.80;99.90
7232;DHT22;3657;49.630;11.018;2022-10-16T10:15:54;17.90;99.90
7232;DHT22;3657;49.630;11.018;2022-10-16T10:18:22;17.90;99.90
7232;DHT22;3657;49.630;11.018;2022-10-16T10:20:59;18.00;99.90
7232;DHT22;3657;49.630;11.018;2022-10-16T10:23:27;18.00;99.90
7232;DHT22;3657;49.630;11.018;2022-10-16T10:26:01;18.00;99.90
7232;DHT22;3657;49.630;11.018;2022-10-16T10:28:45;18.10;99.90
7232;DHT22;3657;49.630;11.018;2022-10-16T10:31:19;18.10;99.90
7232;DHT22;3657;49.630;11.018;2022-10-16T10:33:52;18.10;99.90
7232;DHT22;3657;49.630;11.018;2022-10-16T10:36:28;18.20;99.90
7232;DHT22;3657;49.630;11.018;2022-10-16T10:38:58;18.20;99.90
7232;DHT22;3657;49.630;11.018;2022-10-16T10:41:52;18.20;99.90
7232;DHT22;3657;49.630;11.018;2022-10-16T10:44:29;18.20;99.90
7232;DHT22;3657;49.630;11.018;2022-10-16T10:47:05;18.20;99.90
7232;DHT22;3657;49.630;11.018;2022-10-16T10:49:48;18.20;99.90
7232;DHT22;3657;49.630;11.018;2022-10-16T10:52:30;18.20;99.90
7232;DHT22;3657;49.630;11.018;2022-10-16T10:55:05;18.20;99.90
7232;DHT22;3657;49.630;11.018;2022-10-16T10:57:41;18.20;99.90
7232;DHT22;3657;49.630;11.018;2022-10-16T11:00:19;18.30;99.90
7232;DHT22;3657;49.630;11.018;2022-10-16T11:02:50;18.30;99.90
7232;DHT22;3657;49.630;11.018;2022-10-16T11:05:30;18.50;99.90
7232;DHT22;3657;49.630;11.018;2022-10-16T11:08:06;18.50;99.90
7232;DHT22;3657;49.630;11.018;2022-10-16T11:10:42;18.70;99.90
7232;DHT22;3657;49.630;11.018;2022-10-16T11:13:19;18.80;99.90
7232;DHT22;3657;49.630;11.018;2022-10-16T11:15:48;18.90;99.90
7232;DHT22;3657;49.630;11.018;2022-10-16T11:18:21;18.90;99.90
7232;DHT22;3657;49.630;11.018;2022-10-16T11:20:52;18.90;99.90
7232;DHT22;3657;49.630;11.018;2022-10-16T11:23:25;19.00;99.90
7232;DHT22;3657;49.630;11.018;2022-10-16T11:25:57;19.00;99.90
7232;DHT22;3657;49.630;11.018;2022-10-16T11:28:29;19.00;99.90
7232;DHT22;3657;49.630;11.018;2022-10-16T11:31:02;19.00;99.90
7232;DHT22;3657;49.630;11.018;2022-10-16T11:33:37;19.10;99.90
7232;DHT22;3657;49.630;11.018;2022-10-16T11:36:11;19.10;99.90
7232;DHT22;3657;49.630;11.018;2022-10-16T11:38:45;19.10;99.90
7232;DHT22;3657;49.630;11.018;2022-10-16T11:41:24;19.20;99.90
7232;DHT22;3657;49.630;11.018;2022-10-16T11:44:00;19.40;99.90
7232;DHT22;3657;49.630;11.018;2022-10-16T11:46:32;19.50;99.90
7232;DHT22;3657;49.630;11.018;2022-10-16T11:49:06;19.60;99.90
7232;DHT22;3657;49.630;11.018;2022-10-16T11:51:38;19.80;99.90
7232;DHT22;3657;49.630;11.018;2022-10-16T11:54:14;20.00;99.90
7232;DHT22;3657;49.630;11.018;2022-10-16T11:56:47;20.10;99.90
7232;DHT22;3657;49.630;11.018;2022-10-16T11:59:21;20.20;99.90
7232;DHT22;3657;49.630;11.018;2022-10-16T12:01:53;20.30;99.90
7232;DHT22;3657;49.630;11.018;2022-10-16T12:04:28;20.40;99.90
7232;DHT22;3657;49.630;11.018;2022-10-16T12:07:04;20.50;99.90
7232;DHT22;3657;49.630;11.018;2022-10-16T12:09:37;20.50;99.90
7232;DHT22;3657;49.630;11.018;2022-10-16T12:12:04;20.50;99.90
7232;DHT22;3657;49.630;11.018;2022-10-16T12:14:37;20.50;99.90
7232;DHT22;3657;49.630;11.018;2022-10-16T12:17:24;20.50;99.90
7232;DHT22;3657;49.630;11.018;2022-10-16T12:19:59;20.50;99.90
7232;DHT22;3657;49.630;11.018;2022-10-16T12:22:28;20.50;99.90
7232;DHT22;3657;49.630;11.018;2022-10-16T12:24:56;20.60;99.90
7232;DHT22;3657;49.630;11.018;2022-10-16T12:27:28;20.60;99.90
7232;DHT22;3657;49.630;11.018;2022-10-16T12:29:56;20.70;99.90
7232;DHT22;3657;49.630;11.018;2022-10-16T12:32:28;20.80;99.90
7232;DHT22;3657;49.630;11.018;2022-10-16T12:34:56;20.90;99.90
7232;DHT22;3657;49.630;11.018;2022-10-16T12:37:25;20.90;99.90
7232;DHT22;3657;49.630;11.018;2022-10-16T12:39:54;20.90;99.90
7232;DHT22;3657;49.630;11.018;2022-10-16T12:42:33;20.90;99.90
7232;DHT22;3657;49.630;11.018;2022-10-16T12:45:00;20.90;99.90
7232;DHT22;3657;49.630;11.018;2022-10-16T12:47:46;20.90;99.90
7232;DHT22;3657;49.630;11.018;2022-10-16T12:50:29;20.90;99.90
7232;DHT22;3657;49.630;11.018;2022-10-16T12:52:57;21.00;99.90
7232;DHT22;3657;49.630;11.018;2022-10-16T12:55:24;21.10;99.90
7232;DHT22;3657;49.630;11.018;2022-10-16T12:58:12;21.10;99.90
7232;DHT22;3657;49.630;11.018;2022-10-16T13:00:44;21.20;99.90
7232;DHT22;3657;49.630;11.018;2022-10-16T13:06:20;21.40;99.90
7232;DHT22;3657;49.630;11.018;2022-10-16T13:09:02;21.60;99.90
7232;DHT22;3657;49.630;11.018;2022-10-16T13:11:43;21.60;99.90
7232;DHT22;3657;49.630;11.018;2022-10-16T13:14:31;21.70;99.90
7232;DHT22;3657;49.630;11.018;2022-10-16T13:17:06;21.80;99.90
7232;DHT22;3657;49.630;11.018;2022-10-16T13:19:41;21.80;99.90
7232;DHT22;3657;49.630;11.018;2022-10-16T13:22:16;21.80;99.90
7232;DHT22;3657;49.630;11.018;2022-10-16T13:24:56;21.60;99.90
7232;DHT22;3657;49.630;11.018;2022-10-16T13:27:34;21.70;99.90
7232;DHT22;3657;49.630;11.018;2022-10-16T13:30:12;21.70;99.90
7232;DHT22;3657;49.630;11.018;2022-10-16T13:32:40;21.80;99.90
7232;DHT22;3657;49.630;11.018;2022-10-16T13:35:22;21.70;99.90
7232;DHT22;3657;49.630;11.018;2022-10-16T13:37:49;21.80;99.90
7232;DHT22;3657;49.630;11.018;2022-10-16T13:40:20;21.70;99.90
7232;DHT22;3657;49.630;11.018;2022-10-16T13:42:48;21.50;99.90
7232;DHT22;3657;49.630;11.018;2022-10-16T13:45:21;21.50;99.90
7232;DHT22;3657;49.630;11.018;2022-10-16T13:47:48;21.60;99.90
7232;DHT22;3657;49.630;11.018;2022-10-16T13:50:17;21.60;99.90
7232;DHT22;3657;49.630;11.018;2022-10-16T13:52:45;21.70;99.90
7232;DHT22;3657;49.630;11.018;2022-10-16T13:55:12;21.80;99.90
7232;DHT22;3657;49.630;11.018;2022-10-16T13:57:39;21.90;99.90
7232;DHT22;3657;49.630;11.018;2022-10-16T14:00:20;22.00;99.90
7232;DHT22;3657;49.630;11.018;2022-10-16T14:02:51;22.20;99.90
7232;DHT22;3657;49.630;11.018;2022-10-16T14:05:22;22.30;99.90
7232;DHT22;3657;49.630;11.018;2022-10-16T14:07:49;22.30;99.90
7232;DHT22;3657;49.630;11.018;2022-10-16T14:10:22;22.40;99.90
7232;DHT22;3657;49.630;11.018;2022-10-16T14:12:57;22.40;99.90
7232;DHT22;3657;49.630;11.018;2022-10-16T14:15:26;22.40;99.90
7232;DHT22;3657;49.630;11.018;2022-10-16T14:17:53;22.30;99.90
7232;DHT22;3657;49.630;11.018;2022-10-16T14:20:24;22.20;99.90
7232;DHT22;3657;49.630;11.018;2022-10-16T14:22:59;22.30;99.90
7232;DHT22;3657;49.630;11.018;2022-10-16T14:25:28;22.40;99.90
7232;DHT22;3657;49.630;11.018;2022-10-16T14:28:00;22.40;99.90
7232;DHT22;3657;49.630;11.018;2022-10-16T14:30:29;22.50;99.90
7232;DHT22;3657;49.630;11.018;2022-10-16T14:32:58;22.50;99.90
7232;DHT22;3657;49.630;11.018;2022-10-16T14:35:29;22.60;99.90
7232;DHT22;3657;49.630;11.018;2022-10-16T14:37:57;22.60;99.90
7232;DHT22;3657;49.630;11.018;2022-10-16T14:40:26;22.60;99.90
7232;DHT22;3657;49.630;11.018;2022-10-16T14:42:53;22.40;99.90
7232;DHT22;3657;49.630;11.018;2022-10-16T14:45:21;22.30;99.90
7232;DHT22;3657;49.630;11.018;2022-10-16T14:47:53;22.10;99.90
7232;DHT22;3657;49.630;11.018;2022-10-16T14:50:20;22.10;99.90
7232;DHT22;3657;49.630;11.018;2022-10-16T14:52:47;22.10;99.90
7232;DHT22;3657;49.630;11.018;2022-10-16T14:55:14;22.20;99.90
7232;DHT22;3657;49.630;11.018;2022-10-16T14:57:43;21.90;99.90
7232;DHT22;3657;49.630;11.018;2022-10-16T15:00:17;21.90;99.90
7232;DHT22;3657;49.630;11.018;2022-10-16T15:02:44;21.80;99.90
7232;DHT22;3657;49.630;11.018;2022-10-16T15:05:16;21.80;99.90
7232;DHT22;3657;49.630;11.018;2022-10-16T15:07:44;21.90;99.90
7232;DHT22;3657;49.630;11.018;2022-10-16T15:10:11;21.80;99.90
7232;DHT22;3657;49.630;11.018;2022-10-16T15:12:38;21.80;99.90
7232;DHT22;3657;49.630;11.018;2022-10-16T15:15:21;21.80;99.90
7232;DHT22;3657;49.630;11.018;2022-10-16T15:17:50;21.90;99.90
7232;DHT22;3657;49.630;11.018;2022-10-16T15:20:20;21.90;99.90
7232;DHT22;3657;49.630;11.018;2022-10-16T15:22:47;21.90;99.90
7232;DHT22;3657;49.630;11.018;2022-10-16T15:25:27;21.90;99.90
7232;DHT22;3657;49.630;11.018;2022-10-16T15:27:55;21.90;99.90
7232;DHT22;3657;49.630;11.018;2022-10-16T15:30:22;21.80;99.90
7232;DHT22;3657;49.630;11.018;2022-10-16T15:32:49;21.90;99.90
7232;DHT22;3657;49.630;11.018;2022-10-16T15:35:16;21.90;99.90
7232;DHT22;3657;49.630;11.018;2022-10-16T15:37:45;21.80;99.90
7232;DHT22;3657;49.630;11.018;2022-10-16T15:40:12;21.80;99.90
7232;DHT22;3657;49.630;11.018;2022-10-16T15:42:39;21.70;99.90
7232;DHT22;3657;49.630;11.018;2022-10-16T15:45:06;21.70;99.90
7232;DHT22;3657;49.630;11.018;2022-10-16T15:47:34;21.70;99.90
7232;DHT22;3657;49.630;11.018;2022-10-16T15:50:01;21.60;99.90
7232;DHT22;3657;49.630;11.018;2022-10-16T15:52:27;21.60;99.90
7232;DHT22;3657;49.630;11.018;2022-10-16T15:54:58;21.50;99.90
7232;DHT22;3657;49.630;11.018;2022-10-16T15:57:27;21.50;99.90
7232;DHT22;3657;49.630;11.018;2022-10-16T15:59:54;21.50;99.90
7232;DHT22;3657;49.630;11.018;2022-10-16T16:02:20;21.50;99.90
7232;DHT22;3657;49.630;11.018;2022-10-16T16:04:47;21.40;99.90